createdAt,value
2019-05-10T00:00:20.300Z,97.50
2019-05-10T00:05:43.249Z,97.50
2019-05-10T00:10:52.824Z,97.60
2019-05-10T00:15:57.654Z,97.60
2019-05-10T00:21:02.782Z,97.80
2019-05-10T00:26:07.786Z,97.70
2019-05-10T00:31:12.554Z,97.60
2019-05-10T00:36:17.384Z,97.90
2019-05-10T00:41:22.144Z,97.80
2019-05-10T00:46:26.986Z,97.80
2019-05-10T00:51:31.830Z,97.90
2019-05-10T00:56:36.678Z,98.20
2019-05-10T01:01:41.524Z,98.20
2019-05-10T01:06:46.969Z,98.50
2019-05-10T01:11:52.308Z,98.80
2019-05-10T01:16:57.733Z,98.90
2019-05-10T01:22:03.159Z,98.40
2019-05-10T01:27:07.995Z,98.40
2019-05-10T01:32:12.938Z,98.40
2019-05-10T01:37:17.695Z,98.40
2019-05-10T01:42:22.539Z,98.70
2019-05-10T01:47:27.288Z,98.80
2019-05-10T01:52:32.125Z,99.20
2019-05-10T01:57:36.949Z,99.70
2019-05-10T02:02:41.808Z,99.90
2019-05-10T02:07:46.638Z,99.90
2019-05-10T02:12:51.490Z,99.90
2019-05-10T02:17:56.336Z,99.90
2019-05-10T02:23:01.202Z,99.90
2019-05-10T02:28:06.042Z,99.90
2019-05-10T02:33:10.881Z,99.90
2019-05-10T02:38:15.708Z,99.90
2019-05-10T02:43:20.556Z,99.90
2019-05-10T02:48:25.394Z,99.90
2019-05-10T02:53:30.225Z,99.90
2019-05-10T02:58:35.068Z,99.90
2019-05-10T03:03:42.916Z,99.80
2019-05-10T03:08:52.265Z,99.60
2019-05-10T03:14:17.835Z,99.80
2019-05-10T03:19:23.563Z,99.90
2019-05-10T03:24:28.565Z,99.90
2019-05-10T03:29:33.430Z,99.90
2019-05-10T03:34:38.248Z,99.90
2019-05-10T03:39:43.069Z,99.90
2019-05-10T03:44:47.924Z,99.90
2019-05-10T03:49:52.769Z,99.90
2019-05-10T03:54:57.618Z,99.90
2019-05-10T04:00:02.449Z,99.90
2019-05-10T04:05:07.886Z,99.90
2019-05-10T04:10:13.839Z,99.90
2019-05-10T04:15:18.688Z,99.90
2019-05-10T04:20:23.519Z,99.90
2019-05-10T04:25:28.423Z,99.90
2019-05-10T04:30:33.253Z,99.90
2019-05-10T04:35:38.083Z,99.90
2019-05-10T04:40:42.922Z,99.90
2019-05-10T04:45:47.762Z,99.90
2019-05-10T04:50:52.584Z,99.90
2019-05-10T04:55:57.440Z,99.90
2019-05-10T05:01:03.539Z,99.90
2019-05-10T05:06:08.373Z,99.90
2019-05-10T05:11:13.216Z,99.90
2019-05-10T05:16:18.122Z,99.90
2019-05-10T05:21:22.973Z,99.90
2019-05-10T05:26:27.665Z,99.90
2019-05-10T05:31:32.507Z,99.60
2019-05-10T05:36:37.260Z,99.60
2019-05-10T05:41:49.284Z,99.80
2019-05-10T05:46:48.677Z,99.30
2019-05-10T05:51:53.518Z,99.20
2019-05-10T05:56:58.277Z,99.10
2019-05-10T06:02:07.421Z,98.70
2019-05-10T06:07:09.504Z,98.90
2019-05-10T06:12:14.596Z,99.10
2019-05-10T06:17:23.778Z,98.80
2019-05-10T06:22:25.879Z,98.80
2019-05-10T06:27:30.654Z,98.30
2019-05-10T06:32:35.503Z,99.30
2019-05-10T06:37:40.361Z,99.30
2019-05-10T06:42:45.311Z,99.40
2019-05-10T06:47:53.284Z,98.30
2019-05-10T06:53:00.494Z,98.60
2019-05-10T06:58:03.427Z,97.70
2019-05-10T07:03:08.264Z,97.90
2019-05-10T07:08:19.726Z,97.90
2019-05-10T07:13:19.549Z,97.80
2019-05-10T07:18:24.401Z,96.60
2019-05-10T07:23:30.178Z,95.70
2019-05-10T07:28:35.305Z,95.10
2019-05-10T07:33:40.316Z,94.00
2019-05-10T07:38:45.176Z,93.90
2019-05-10T07:43:50.138Z,94.70
2019-05-10T07:48:54.843Z,93.20
2019-05-10T07:54:04.537Z,92.20
2019-05-10T07:59:06.356Z,91.50
2019-05-10T08:04:12.985Z,91.90
2019-05-10T08:09:19.228Z,91.20
2019-05-10T08:14:25.460Z,90.80
2019-05-10T08:19:32.814Z,88.00
2019-05-10T08:24:37.082Z,88.70
2019-05-10T08:29:42.906Z,86.70
2019-05-10T08:34:53.060Z,84.40
2019-05-10T08:39:56.033Z,85.90
2019-05-10T08:45:05.450Z,83.30
2019-05-10T08:50:22.530Z,81.70
2019-05-10T08:55:14.375Z,80.20
2019-05-10T09:00:37.143Z,78.40
2019-05-10T09:05:28.936Z,78.10
2019-05-10T09:10:32.409Z,76.60
2019-05-10T09:15:43.273Z,77.80
2019-05-10T09:20:43.909Z,74.30
2019-05-10T09:25:51.712Z,75.20
2019-05-10T09:31:00.670Z,70.60
2019-05-10T09:36:02.958Z,72.00
2019-05-10T09:41:08.057Z,71.00
2019-05-10T09:46:14.137Z,73.20
2019-05-10T09:51:27.955Z,71.00
2019-05-10T09:56:27.609Z,69.60
2019-05-10T10:01:32.518Z,66.40
2019-05-10T10:06:41.800Z,66.40
2019-05-10T10:11:48.084Z,66.70
2019-05-10T10:16:58.203Z,66.00
2019-05-10T10:21:57.654Z,63.20
2019-05-10T10:27:02.672Z,66.30
2019-05-10T10:32:08.020Z,63.50
2019-05-10T10:37:14.691Z,62.50
2019-05-10T10:42:19.601Z,59.90
2019-05-10T10:47:30.445Z,60.10
2019-05-10T10:52:30.959Z,57.60
2019-05-10T10:57:37.399Z,61.10
2019-05-10T11:02:46.768Z,59.40
2019-05-10T11:07:51.044Z,60.00
2019-05-10T11:12:56.278Z,58.20
2019-05-10T11:18:01.823Z,58.00
2019-05-10T11:23:06.596Z,60.30
2019-05-10T11:28:12.020Z,60.30
2019-05-10T11:33:33.659Z,57.80
2019-05-10T11:38:37.410Z,58.60
2019-05-10T11:43:43.586Z,56.00
2019-05-10T11:48:50.734Z,55.20
2019-05-10T11:53:59.513Z,57.90
2019-05-10T11:59:04.737Z,56.90
2019-05-10T12:04:13.116Z,56.50
2019-05-10T12:09:14.227Z,54.10
2019-05-10T12:14:36.729Z,57.20
2019-05-10T12:19:47.875Z,58.80
2019-05-10T12:25:14.144Z,55.50
2019-05-10T12:29:59.526Z,56.90
2019-05-10T12:35:01.433Z,51.10
2019-05-10T12:40:11.865Z,50.70
2019-05-10T12:45:14.530Z,52.10
2019-05-10T12:50:20.896Z,55.00
2019-05-10T12:55:25.740Z,57.70
2019-05-10T13:00:30.749Z,58.70
2019-05-10T13:05:51.080Z,58.80
2019-05-10T13:10:43.293Z,59.70
2019-05-10T13:15:48.747Z,57.70
2019-05-10T13:20:53.620Z,55.20
2019-05-10T13:25:58.554Z,53.70
2019-05-10T13:31:05.696Z,52.80
2019-05-10T13:36:09.885Z,53.00
2019-05-10T13:41:17.740Z,53.30
2019-05-10T13:46:21.321Z,52.30
2019-05-10T13:51:26.187Z,51.20
2019-05-10T13:56:30.973Z,48.40
2019-05-10T14:01:35.940Z,47.00
2019-05-10T14:06:40.821Z,50.70
2019-05-10T14:11:46.947Z,50.30
2019-05-10T14:16:52.356Z,49.70
2019-05-10T14:21:57.180Z,52.10
2019-05-10T14:27:01.947Z,52.80
2019-05-10T14:32:10.421Z,53.30
2019-05-10T14:37:19.788Z,54.50
2019-05-10T14:42:30.347Z,54.50
2019-05-10T14:47:28.586Z,54.80
2019-05-10T14:52:33.426Z,56.90
2019-05-10T14:57:38.450Z,59.60
2019-05-10T15:02:43.542Z,64.60
2019-05-10T15:07:51.057Z,69.60
2019-05-10T15:12:55.109Z,72.70
2019-05-10T15:18:01.854Z,75.10
2019-05-10T15:23:06.668Z,73.70
2019-05-10T15:28:11.513Z,69.80
2019-05-10T15:33:17.844Z,65.90
2019-05-10T15:38:22.708Z,64.70
2019-05-10T15:43:27.537Z,63.70
2019-05-10T15:48:36.517Z,61.60
2019-05-10T15:53:39.104Z,61.60
2019-05-10T15:58:43.917Z,62.20
2019-05-10T16:03:48.674Z,63.40
2019-05-10T16:08:54.048Z,64.40
2019-05-10T16:14:00.150Z,64.50
2019-05-10T16:19:05.370Z,66.00
2019-05-10T16:24:13.387Z,66.80
2019-05-10T16:29:16.656Z,67.20
2019-05-10T16:34:26.504Z,68.00
2019-05-10T16:39:27.949Z,67.70
2019-05-10T16:44:32.823Z,69.30
2019-05-10T16:49:37.644Z,68.30
2019-05-10T16:54:44.316Z,69.00
2019-05-10T16:59:49.443Z,69.90
2019-05-10T17:04:54.614Z,71.30
2019-05-10T17:09:59.631Z,70.80
2019-05-10T17:15:05.434Z,71.60
2019-05-10T17:20:15.859Z,72.50
2019-05-10T17:25:17.854Z,72.70
2019-05-10T17:30:27.601Z,73.30
2019-05-10T17:35:29.266Z,74.20
2019-05-10T17:40:34.304Z,73.50
2019-05-10T17:45:40.512Z,75.00
2019-05-10T17:50:45.996Z,75.80
2019-05-10T17:55:56.482Z,75.80
2019-05-10T18:00:57.677Z,76.80
2019-05-10T18:06:02.713Z,77.00
2019-05-10T18:11:07.576Z,77.30
2019-05-10T18:16:12.434Z,77.80
2019-05-10T18:21:21.760Z,79.20
2019-05-10T18:26:23.769Z,79.40
2019-05-10T18:31:28.710Z,79.90
2019-05-10T18:36:50.499Z,81.50
2019-05-10T18:41:50.288Z,82.30
2019-05-10T18:46:56.615Z,83.50
2019-05-10T18:52:04.547Z,84.80
2019-05-10T18:57:12.333Z,87.50
2019-05-10T19:02:17.696Z,88.50
2019-05-10T19:07:20.752Z,89.80
2019-05-10T19:12:26.070Z,90.00
2019-05-10T19:17:31.279Z,90.40
2019-05-10T19:22:41.336Z,90.60
2019-05-10T19:27:44.151Z,90.80
2019-05-10T19:32:51.127Z,90.80
2019-05-10T19:37:55.740Z,90.50
2019-05-10T19:43:00.582Z,90.80
2019-05-10T19:48:06.017Z,90.70
2019-05-10T19:53:11.351Z,90.90
2019-05-10T19:58:16.181Z,91.10
2019-05-10T20:03:20.951Z,91.10
2019-05-10T20:08:25.784Z,91.00
2019-05-10T20:13:30.541Z,91.10
2019-05-10T20:18:35.460Z,90.00
2019-05-10T20:23:40.295Z,90.00
2019-05-10T20:28:45.146Z,90.00
2019-05-10T20:33:50.113Z,90.20
2019-05-10T20:38:54.951Z,90.40
2019-05-10T20:43:59.798Z,90.40
2019-05-10T20:49:04.669Z,90.80
2019-05-10T20:54:10.115Z,91.10
2019-05-10T20:59:14.801Z,91.20
2019-05-10T21:04:19.524Z,91.60
2019-05-10T21:09:24.333Z,92.20
2019-05-10T21:14:29.133Z,92.30
2019-05-10T21:19:34.059Z,92.40
2019-05-10T21:24:38.941Z,92.40
2019-05-10T21:29:43.782Z,92.60
2019-05-10T21:34:48.660Z,92.50
2019-05-10T21:39:53.530Z,92.90
2019-05-10T21:44:58.329Z,92.70
2019-05-10T21:50:03.589Z,92.80
2019-05-10T21:55:21.055Z,93.00
2019-05-10T22:00:27.892Z,93.00
2019-05-10T22:05:32.713Z,93.00
2019-05-10T22:10:37.562Z,93.00
2019-05-10T22:15:42.407Z,93.40
2019-05-10T22:20:47.333Z,93.30
2019-05-10T22:25:52.088Z,94.00
2019-05-10T22:30:56.934Z,94.10
2019-05-10T22:36:01.784Z,94.50
2019-05-10T22:41:06.541Z,94.50
2019-05-10T22:46:11.305Z,94.70
2019-05-10T22:51:16.145Z,94.70
2019-05-10T22:56:20.978Z,94.90
2019-05-10T23:01:25.779Z,95.40
2019-05-10T23:06:30.642Z,95.60
2019-05-10T23:11:35.466Z,95.20
2019-05-10T23:16:40.267Z,95.30
2019-05-10T23:21:45.286Z,95.40
2019-05-10T23:26:50.186Z,95.50
2019-05-10T23:31:55.040Z,95.30
2019-05-10T23:36:59.916Z,95.20
2019-05-10T23:42:04.808Z,95.30
2019-05-10T23:47:10.201Z,95.70
2019-05-10T23:52:15.018Z,95.70
2019-05-10T23:57:19.810Z,95.40
